Denver, Colorado
Traffic Map
Current Weather Conditions
Denver, Colorado
Broken Clouds
Broken Clouds
61°
Feels Like: 61°
Wind Chill: 61° Ceiling: 11000
Heat Index: 61° Visibility: 10mi
Dew Point: 61° Wind: 1mph
Humidity: 100% Direction: 120° (ESE)
Pressure: 30.19in Gusts: 0mph
Raw Report DataKBKF 011258Z 12001KT 10SM SCT060 BKN110 BKN220 16/16 A3019 RMK AO2A SLP160 T01600160
Traffic Incident Summary
Active as of:
Severity:
Category:
InformationThere was an issue retrieving the traffic information for this location. Please try a different location or try again shortly.
Advertisements
Track Severe Weather on mobile